KQA601 HKJK-HKKI
Flight info
| Callsign | KQA601 |
|---|---|
| Flight time | 0h 34m |
| Altitude | 24000 |
| Route | APKUB1A APKUB DCT NEVON NEVON1A |
| Aircraft | B738/M-SDE1E2E3FGHIJ2J3J4J5M1RWXYZ/LB1D1 |
Departure
| Time | 2026-04-20 17:41 |
|---|---|
| Airport | Jomo Kenyatta International Airport (HKJK) |
Arrival
| Time | 2026-04-20 18:15 |
|---|---|
| Airport | Kisumu International Airport (HKKI) |
| Time | Latitude | Longitude | Altitude | Speed | Heading |
|---|---|---|---|---|---|
| 2026-04-20 17:26 | -1.32940 | 36.92156 | 5323 ft | 0 kts | 285° |
| 2026-04-20 17:33 | -1.32946 | 36.92179 | 5333 ft | 4 kts | 285° |
| 2026-04-20 17:34 | -1.32952 | 36.92203 | 5314 ft | 4 kts | 286° |
| 2026-04-20 17:34 | -1.32964 | 36.92223 | 5313 ft | 4 kts | 340° |
| 2026-04-20 17:34 | -1.32988 | 36.92222 | 5318 ft | 3 kts | 15° |
| 2026-04-20 17:34 | -1.32995 | 36.92221 | 5320 ft | 0 kts | 15° |
| 2026-04-20 17:37 | -1.32995 | 36.92220 | 5320 ft | 0 kts | 15° |
| 2026-04-20 17:38 | -1.32995 | 36.92221 | 5323 ft | 0 kts | 15° |
| 2026-04-20 17:38 | -1.32955 | 36.92233 | 5322 ft | 12 kts | 20° |
| 2026-04-20 17:38 | -1.32860 | 36.92250 | 5323 ft | 15 kts | 336° |
| 2026-04-20 17:38 | -1.32802 | 36.92208 | 5323 ft | 10 kts | 315° |
| 2026-04-20 17:39 | -1.32797 | 36.92143 | 5319 ft | 9 kts | 236° |
| 2026-04-20 17:39 | -1.32839 | 36.92081 | 5327 ft | 15 kts | 246° |
| 2026-04-20 17:39 | -1.32830 | 36.91947 | 5331 ft | 28 kts | 281° |
| 2026-04-20 17:39 | -1.32868 | 36.91744 | 5337 ft | 17 kts | 281° |
| 2026-04-20 17:40 | -1.32757 | 36.91667 | 5338 ft | 14 kts | 11° |
| 2026-04-20 17:40 | -1.32637 | 36.91798 | 5333 ft | 53 kts | 54° |
| 2026-04-20 17:40 | -1.32283 | 36.92287 | 5320 ft | 118 kts | 54° |
| 2026-04-20 17:40 | -1.31683 | 36.93104 | 5308 ft | 171 kts | 53° |
| 2026-04-20 17:41 | -1.30927 | 36.94154 | 5661 ft | 190 kts | 54° |
| 2026-04-20 17:41 | -1.30196 | 36.95174 | 6713 ft | 177 kts | 55° |
| 2026-04-20 17:41 | -1.29451 | 36.96163 | 7348 ft | 186 kts | 55° |
| 2026-04-20 17:41 | -1.28617 | 36.97274 | 7567 ft | 212 kts | 56° |
| 2026-04-20 17:42 | -1.27688 | 36.98518 | 7745 ft | 235 kts | 55° |
| 2026-04-20 17:42 | -1.26677 | 36.99876 | 8037 ft | 250 kts | 55° |
| 2026-04-20 17:42 | -1.25628 | 37.01289 | 8558 ft | 255 kts | 55° |
| 2026-04-20 17:42 | -1.24534 | 37.02766 | 8827 ft | 274 kts | 55° |
| 2026-04-20 17:43 | -1.23379 | 37.04327 | 9393 ft | 284 kts | 55° |
| 2026-04-20 17:43 | -1.22200 | 37.05913 | 10270 ft | 285 kts | 52° |
| 2026-04-20 17:43 | -1.20611 | 37.07195 | 10584 ft | 311 kts | 25° |
| 2026-04-20 17:43 | -1.18410 | 37.07603 | 10906 ft | 335 kts | 359° |
| 2026-04-20 17:44 | -1.16108 | 37.07098 | 11525 ft | 346 kts | 339° |
| 2026-04-20 17:44 | -1.14076 | 37.05784 | 12218 ft | 354 kts | 317° |
| 2026-04-20 17:44 | -1.12638 | 37.03767 | 12904 ft | 361 kts | 294° |
| 2026-04-20 17:44 | -1.11984 | 37.01332 | 13582 ft | 367 kts | 277° |
| 2026-04-20 17:45 | -1.11800 | 36.98780 | 14235 ft | 371 kts | 271° |
| 2026-04-20 17:45 | -1.11781 | 36.96210 | 14819 ft | 375 kts | 269° |
| 2026-04-20 17:45 | -1.11798 | 36.93737 | 15399 ft | 378 kts | 269° |
| 2026-04-20 17:45 | -1.11804 | 36.91094 | 16022 ft | 382 kts | 270° |
| 2026-04-20 17:46 | -1.11784 | 36.88431 | 16625 ft | 385 kts | 270° |
| 2026-04-20 17:46 | -1.11740 | 36.85745 | 17212 ft | 389 kts | 271° |
| 2026-04-20 17:46 | -1.11678 | 36.83030 | 17786 ft | 393 kts | 271° |
| 2026-04-20 17:46 | -1.11604 | 36.80283 | 18360 ft | 397 kts | 271° |
| 2026-04-20 17:47 | -1.11523 | 36.77513 | 18856 ft | 401 kts | 271° |
| 2026-04-20 17:47 | -1.11439 | 36.74724 | 19352 ft | 404 kts | 271° |
| 2026-04-20 17:47 | -1.11353 | 36.71911 | 19846 ft | 407 kts | 271° |
| 2026-04-20 17:47 | -1.11266 | 36.69079 | 20325 ft | 410 kts | 271° |
| 2026-04-20 17:48 | -1.11178 | 36.66213 | 20803 ft | 413 kts | 271° |
| 2026-04-20 17:48 | -1.11090 | 36.63332 | 21274 ft | 416 kts | 271° |
| 2026-04-20 17:48 | -1.11002 | 36.60432 | 21769 ft | 418 kts | 271° |
| 2026-04-20 17:48 | -1.10913 | 36.57519 | 22105 ft | 422 kts | 271° |
| 2026-04-20 17:49 | -1.10823 | 36.54552 | 22118 ft | 431 kts | 271° |
| 2026-04-20 17:49 | -1.10731 | 36.51539 | 22123 ft | 435 kts | 271° |
| 2026-04-20 17:49 | -1.10639 | 36.48511 | 22124 ft | 436 kts | 271° |
| 2026-04-20 17:49 | -1.10546 | 36.45487 | 22105 ft | 435 kts | 271° |
| 2026-04-20 17:50 | -1.10454 | 36.42469 | 22106 ft | 434 kts | 271° |
| 2026-04-20 17:50 | -1.10362 | 36.39452 | 22113 ft | 434 kts | 271° |
| 2026-04-20 17:50 | -1.10270 | 36.36438 | 22103 ft | 434 kts | 271° |
| 2026-04-20 17:50 | -1.10178 | 36.33427 | 22099 ft | 433 kts | 271° |
| 2026-04-20 17:51 | -1.10087 | 36.30430 | 22086 ft | 432 kts | 271° |
| 2026-04-20 17:51 | -1.09995 | 36.27428 | 22094 ft | 431 kts | 271° |
| 2026-04-20 17:51 | -1.09904 | 36.24438 | 22091 ft | 431 kts | 271° |
| 2026-04-20 17:51 | -1.09812 | 36.21445 | 22096 ft | 431 kts | 271° |
| 2026-04-20 17:52 | -1.09721 | 36.18451 | 22093 ft | 431 kts | 271° |
| 2026-04-20 17:52 | -1.09450 | 36.15472 | 22069 ft | 431 kts | 284° |
| 2026-04-20 17:52 | -1.08373 | 36.12695 | 22089 ft | 429 kts | 302° |
| 2026-04-20 17:52 | -1.06697 | 36.10240 | 22105 ft | 428 kts | 307° |
| 2026-04-20 17:53 | -1.04928 | 36.07841 | 22094 ft | 429 kts | 308° |
| 2026-04-20 17:53 | -1.03160 | 36.05483 | 22093 ft | 430 kts | 308° |
| 2026-04-20 17:53 | -1.01373 | 36.03093 | 22089 ft | 430 kts | 308° |
| 2026-04-20 17:53 | -0.99588 | 36.00688 | 22090 ft | 430 kts | 308° |
| 2026-04-20 17:54 | -0.97818 | 35.98282 | 22094 ft | 430 kts | 307° |
| 2026-04-20 17:54 | -0.96051 | 35.95867 | 22093 ft | 430 kts | 307° |
| 2026-04-20 17:54 | -0.94289 | 35.93449 | 22091 ft | 430 kts | 307° |
| 2026-04-20 17:54 | -0.92527 | 35.91026 | 22097 ft | 431 kts | 307° |
| 2026-04-20 17:55 | -0.90770 | 35.88607 | 22105 ft | 431 kts | 307° |
| 2026-04-20 17:55 | -0.89008 | 35.86181 | 22086 ft | 431 kts | 307° |
| 2026-04-20 17:55 | -0.87245 | 35.83756 | 22100 ft | 431 kts | 307° |
| 2026-04-20 17:55 | -0.85483 | 35.81331 | 22096 ft | 431 kts | 307° |
| 2026-04-20 17:56 | -0.83723 | 35.78909 | 22091 ft | 431 kts | 307° |
| 2026-04-20 17:56 | -0.81957 | 35.76481 | 22104 ft | 431 kts | 307° |
| 2026-04-20 17:56 | -0.80198 | 35.74060 | 22091 ft | 432 kts | 307° |
| 2026-04-20 17:56 | -0.78430 | 35.71629 | 22094 ft | 432 kts | 307° |
| 2026-04-20 17:57 | -0.76666 | 35.69202 | 22086 ft | 432 kts | 307° |
| 2026-04-20 17:57 | -0.74903 | 35.66777 | 22075 ft | 431 kts | 307° |
| 2026-04-20 17:57 | -0.73147 | 35.64362 | 22073 ft | 431 kts | 307° |
| 2026-04-20 17:57 | -0.71379 | 35.61931 | 22085 ft | 431 kts | 307° |
| 2026-04-20 17:58 | -0.69621 | 35.59513 | 22083 ft | 431 kts | 307° |
| 2026-04-20 17:58 | -0.67864 | 35.57096 | 22078 ft | 431 kts | 307° |
| 2026-04-20 17:58 | -0.66100 | 35.54670 | 22060 ft | 431 kts | 307° |
| 2026-04-20 17:58 | -0.64333 | 35.52239 | 22071 ft | 431 kts | 307° |
| 2026-04-20 17:59 | -0.62572 | 35.49816 | 22072 ft | 431 kts | 307° |
| 2026-04-20 17:59 | -0.60813 | 35.47397 | 22058 ft | 431 kts | 307° |
| 2026-04-20 17:59 | -0.59052 | 35.44975 | 22047 ft | 430 kts | 307° |
| 2026-04-20 17:59 | -0.57299 | 35.42564 | 22041 ft | 425 kts | 307° |
| 2026-04-20 18:00 | -0.55594 | 35.40217 | 22034 ft | 410 kts | 307° |
| 2026-04-20 18:00 | -0.53936 | 35.37936 | 22040 ft | 403 kts | 307° |
| 2026-04-20 18:00 | -0.52294 | 35.35678 | 22042 ft | 403 kts | 307° |
| 2026-04-20 18:00 | -0.50647 | 35.33414 | 21966 ft | 405 kts | 307° |
| 2026-04-20 18:01 | -0.48989 | 35.31134 | 21621 ft | 403 kts | 307° |
| 2026-04-20 18:01 | -0.47346 | 35.28875 | 21193 ft | 401 kts | 307° |
| 2026-04-20 18:01 | -0.45717 | 35.26634 | 20784 ft | 398 kts | 307° |
| 2026-04-20 18:01 | -0.44097 | 35.24399 | 20344 ft | 395 kts | 306° |
| 2026-04-20 18:02 | -0.42859 | 35.21962 | 19855 ft | 396 kts | 287° |
| 2026-04-20 18:02 | -0.42170 | 35.19295 | 19314 ft | 398 kts | 284° |
| 2026-04-20 18:02 | -0.41558 | 35.16637 | 18841 ft | 397 kts | 283° |
| 2026-04-20 18:02 | -0.40950 | 35.13949 | 18367 ft | 397 kts | 283° |
| 2026-04-20 18:03 | -0.40338 | 35.11268 | 17865 ft | 395 kts | 283° |
| 2026-04-20 18:03 | -0.39709 | 35.08568 | 17384 ft | 392 kts | 284° |
| 2026-04-20 18:03 | -0.39096 | 35.05974 | 16956 ft | 388 kts | 284° |
| 2026-04-20 18:03 | -0.38463 | 35.03323 | 16529 ft | 385 kts | 284° |
| 2026-04-20 18:04 | -0.37849 | 35.00765 | 16103 ft | 382 kts | 284° |
| 2026-04-20 18:04 | -0.37229 | 34.98194 | 15683 ft | 379 kts | 284° |
| 2026-04-20 18:04 | -0.36604 | 34.95605 | 15237 ft | 377 kts | 284° |
| 2026-04-20 18:04 | -0.35999 | 34.93098 | 14815 ft | 375 kts | 284° |
| 2026-04-20 18:05 | -0.34785 | 34.88064 | 13959 ft | 371 kts | 284° |
| 2026-04-20 18:05 | -0.34182 | 34.85565 | 13508 ft | 369 kts | 284° |
| 2026-04-20 18:05 | -0.33584 | 34.83085 | 13075 ft | 366 kts | 284° |
| 2026-04-20 18:06 | -0.32981 | 34.80587 | 12729 ft | 361 kts | 284° |
| 2026-04-20 18:06 | -0.32405 | 34.78194 | 12311 ft | 358 kts | 284° |
| 2026-04-20 18:06 | -0.31820 | 34.75773 | 11848 ft | 358 kts | 283° |
| 2026-04-20 18:06 | -0.31241 | 34.73369 | 11439 ft | 355 kts | 283° |
| 2026-04-20 18:07 | -0.30665 | 34.70980 | 11037 ft | 353 kts | 283° |
| 2026-04-20 18:07 | -0.30091 | 34.68603 | 10630 ft | 351 kts | 283° |
| 2026-04-20 18:07 | -0.29527 | 34.66263 | 10443 ft | 342 kts | 283° |
| 2026-04-20 18:07 | -0.28978 | 34.63985 | 10273 ft | 333 kts | 283° |
| 2026-04-20 18:08 | -0.28443 | 34.61769 | 10130 ft | 323 kts | 283° |
| 2026-04-20 18:08 | -0.27924 | 34.59617 | 9992 ft | 315 kts | 283° |
| 2026-04-20 18:08 | -0.27355 | 34.57543 | 9907 ft | 300 kts | 289° |
| 2026-04-20 18:08 | -0.26639 | 34.55608 | 9596 ft | 293 kts | 292° |
| 2026-04-20 18:09 | -0.25591 | 34.53963 | 9520 ft | 273 kts | 318° |
| 2026-04-20 18:09 | -0.24065 | 34.52995 | 9406 ft | 250 kts | 341° |
| 2026-04-20 18:09 | -0.22958 | 34.52704 | 8933 ft | 252 kts | 355° |
| 2026-04-20 18:09 | -0.21217 | 34.52820 | 8244 ft | 251 kts | 16° |
| 2026-04-20 18:10 | -0.19662 | 34.53526 | 7825 ft | 238 kts | 34° |
| 2026-04-20 18:10 | -0.18546 | 34.54613 | 7527 ft | 214 kts | 56° |
| 2026-04-20 18:10 | -0.17728 | 34.55772 | 7275 ft | 195 kts | 57° |
| 2026-04-20 18:10 | -0.17066 | 34.56873 | 7071 ft | 175 kts | 62° |
| 2026-04-20 18:11 | -0.16516 | 34.57912 | 6827 ft | 163 kts | 63° |
| 2026-04-20 18:11 | -0.16005 | 34.58885 | 6625 ft | 155 kts | 63° |
| 2026-04-20 18:11 | -0.15504 | 34.59835 | 6416 ft | 156 kts | 63° |
| 2026-04-20 18:11 | -0.14996 | 34.60799 | 6193 ft | 157 kts | 63° |
| 2026-04-20 18:12 | -0.14487 | 34.61763 | 5973 ft | 157 kts | 63° |
| 2026-04-20 18:12 | -0.13983 | 34.62718 | 5764 ft | 156 kts | 63° |
| 2026-04-20 18:12 | -0.13476 | 34.63677 | 5556 ft | 155 kts | 63° |
| 2026-04-20 18:12 | -0.12978 | 34.64622 | 5342 ft | 156 kts | 63° |
| 2026-04-20 18:13 | -0.12476 | 34.65572 | 5154 ft | 155 kts | 63° |
| 2026-04-20 18:13 | -0.11974 | 34.66523 | 4927 ft | 154 kts | 62° |
| 2026-04-20 18:13 | -0.11476 | 34.67468 | 4708 ft | 153 kts | 62° |
| 2026-04-20 18:13 | -0.10982 | 34.68403 | 4481 ft | 152 kts | 62° |
| 2026-04-20 18:14 | -0.10492 | 34.69332 | 4274 ft | 151 kts | 62° |
| 2026-04-20 18:14 | -0.10014 | 34.70265 | 4061 ft | 152 kts | 58° |
| 2026-04-20 18:14 | -0.09509 | 34.71188 | 3832 ft | 151 kts | 60° |
| 2026-04-20 18:14 | -0.09018 | 34.72103 | 3781 ft | 149 kts | 62° |
| 2026-04-20 18:15 | -0.08635 | 34.72808 | 3779 ft | 64 kts | 61° |
| 2026-04-20 18:15 | -0.08585 | 34.72899 | 3783 ft | 3 kts | 67° |
| 2026-04-20 18:15 | -0.08567 | 34.72935 | 3781 ft | 10 kts | 62° |
| 2026-04-20 18:15 | -0.08518 | 34.73028 | 3782 ft | 12 kts | 62° |
| 2026-04-20 18:16 | -0.08437 | 34.73058 | 3783 ft | 18 kts | 334° |
| 2026-04-20 18:16 | -0.08368 | 34.73007 | 3776 ft | 7 kts | 288° |
| 2026-04-20 18:16 | -0.08393 | 34.72929 | 3780 ft | 12 kts | 244° |
| 2026-04-20 18:16 | -0.08353 | 34.72873 | 3776 ft | 1 kts | 341° |
| 2026-04-20 18:17 | -0.08322 | 34.72867 | 3780 ft | 5 kts | 16° |
| 2026-04-20 18:17 | -0.08301 | 34.72907 | 3776 ft | 5 kts | 64° |
| 2026-04-20 18:17 | -0.08294 | 34.72922 | 3779 ft | 0 kts | 65° |